sensor_id;sensor_type;location;lat;lon;timestamp;P1;durP1;ratioP1;P2;durP2;ratioP2
70840;SDS011;58465;51.534;9.934;2023-03-04T00:00:48;29.08;;;11.43;;
70840;SDS011;58465;51.534;9.934;2023-03-04T00:03:13;30.65;;;11.70;;
70840;SDS011;58465;51.534;9.934;2023-03-04T00:05:41;30.95;;;11.90;;
70840;SDS011;58465;51.534;9.934;2023-03-04T00:08:07;31.75;;;11.88;;
70840;SDS011;58465;51.534;9.934;2023-03-04T00:10:32;24.55;;;11.35;;
70840;SDS011;58465;51.534;9.934;2023-03-04T00:12:57;26.50;;;11.52;;
70840;SDS011;58465;51.534;9.934;2023-03-04T00:15:22;28.77;;;11.68;;
70840;SDS011;58465;51.534;9.934;2023-03-04T00:17:48;28.38;;;11.13;;
70840;SDS011;58465;51.534;9.934;2023-03-04T00:20:13;32.30;;;12.43;;
70840;SDS011;58465;51.534;9.934;2023-03-04T00:22:39;27.85;;;10.52;;
70840;SDS011;58465;51.534;9.934;2023-03-04T00:25:04;25.95;;;10.73;;
70840;SDS011;58465;51.534;9.934;2023-03-04T00:27:29;27.30;;;11.48;;
70840;SDS011;58465;51.534;9.934;2023-03-04T00:29:55;25.27;;;11.40;;
70840;SDS011;58465;51.534;9.934;2023-03-04T00:32:21;25.33;;;10.02;;
70840;SDS011;58465;51.534;9.934;2023-03-04T00:34:46;34.95;;;11.20;;
70840;SDS011;58465;51.534;9.934;2023-03-04T00:37:11;29.45;;;11.20;;
70840;SDS011;58465;51.534;9.934;2023-03-04T00:39:37;28.42;;;11.15;;
70840;SDS011;58465;51.534;9.934;2023-03-04T00:42:02;26.45;;;10.93;;
70840;SDS011;58465;51.534;9.934;2023-03-04T00:44:27;31.80;;;11.40;;
70840;SDS011;58465;51.534;9.934;2023-03-04T00:46:52;28.23;;;10.35;;
70840;SDS011;58465;51.534;9.934;2023-03-04T00:49:18;26.35;;;9.75;;
70840;SDS011;58465;51.534;9.934;2023-03-04T00:51:43;24.17;;;8.95;;
70840;SDS011;58465;51.534;9.934;2023-03-04T00:54:08;25.70;;;9.38;;
70840;SDS011;58465;51.534;9.934;2023-03-04T00:56:33;22.60;;;9.02;;
70840;SDS011;58465;51.534;9.934;2023-03-04T00:58:59;24.63;;;9.43;;
70840;SDS011;58465;51.534;9.934;2023-03-04T01:01:24;27.23;;;10.00;;
70840;SDS011;58465;51.534;9.934;2023-03-04T01:03:49;31.27;;;9.13;;
70840;SDS011;58465;51.534;9.934;2023-03-04T01:06:14;27.90;;;10.20;;
70840;SDS011;58465;51.534;9.934;2023-03-04T01:08:40;25.33;;;9.68;;
70840;SDS011;58465;51.534;9.934;2023-03-04T01:11:05;23.85;;;8.63;;
70840;SDS011;58465;51.534;9.934;2023-03-04T01:13:31;24.17;;;8.73;;
70840;SDS011;58465;51.534;9.934;2023-03-04T01:15:57;22.48;;;8.80;;
70840;SDS011;58465;51.534;9.934;2023-03-04T01:18:22;28.15;;;9.38;;
70840;SDS011;58465;51.534;9.934;2023-03-04T01:20:47;24.58;;;9.07;;
70840;SDS011;58465;51.534;9.934;2023-03-04T01:23:13;26.08;;;9.55;;
70840;SDS011;58465;51.534;9.934;2023-03-04T01:25:38;23.45;;;9.00;;
70840;SDS011;58465;51.534;9.934;2023-03-04T01:28:03;27.00;;;9.68;;
70840;SDS011;58465;51.534;9.934;2023-03-04T01:30:29;27.23;;;9.50;;
70840;SDS011;58465;51.534;9.934;2023-03-04T01:32:54;26.23;;;9.02;;
70840;SDS011;58465;51.534;9.934;2023-03-04T01:35:19;28.85;;;11.02;;
70840;SDS011;58465;51.534;9.934;2023-03-04T01:37:44;25.80;;;9.20;;
70840;SDS011;58465;51.534;9.934;2023-03-04T01:40:10;21.27;;;8.30;;
70840;SDS011;58465;51.534;9.934;2023-03-04T01:42:36;24.42;;;8.93;;
70840;SDS011;58465;51.534;9.934;2023-03-04T01:45:02;23.40;;;8.43;;
70840;SDS011;58465;51.534;9.934;2023-03-04T01:47:29;25.38;;;8.85;;
70840;SDS011;58465;51.534;9.934;2023-03-04T01:49:56;23.00;;;8.65;;
70840;SDS011;58465;51.534;9.934;2023-03-04T01:52:22;24.75;;;8.82;;
70840;SDS011;58465;51.534;9.934;2023-03-04T01:54:48;18.10;;;8.07;;
70840;SDS011;58465;51.534;9.934;2023-03-04T01:57:17;22.00;;;8.93;;
70840;SDS011;58465;51.534;9.934;2023-03-04T01:59:44;22.63;;;8.40;;
70840;SDS011;58465;51.534;9.934;2023-03-04T02:02:11;22.45;;;7.93;;
70840;SDS011;58465;51.534;9.934;2023-03-04T02:04:37;26.05;;;8.35;;
70840;SDS011;58465;51.534;9.934;2023-03-04T02:07:04;27.42;;;7.97;;
70840;SDS011;58465;51.534;9.934;2023-03-04T02:09:30;23.38;;;8.20;;
70840;SDS011;58465;51.534;9.934;2023-03-04T02:11:57;22.38;;;7.72;;
70840;SDS011;58465;51.534;9.934;2023-03-04T02:14:23;25.88;;;7.88;;
70840;SDS011;58465;51.534;9.934;2023-03-04T02:16:49;21.98;;;7.80;;
70840;SDS011;58465;51.534;9.934;2023-03-04T02:19:17;28.50;;;9.15;;
70840;SDS011;58465;51.534;9.934;2023-03-04T02:21:50;28.20;;;9.07;;
70840;SDS011;58465;51.534;9.934;2023-03-04T02:24:24;24.60;;;7.45;;
70840;SDS011;58465;51.534;9.934;2023-03-04T02:26:54;26.65;;;7.47;;
70840;SDS011;58465;51.534;9.934;2023-03-04T02:29:19;21.55;;;7.95;;
70840;SDS011;58465;51.534;9.934;2023-03-04T02:31:46;22.98;;;7.38;;
70840;SDS011;58465;51.534;9.934;2023-03-04T02:34:14;21.10;;;6.35;;
70840;SDS011;58465;51.534;9.934;2023-03-04T02:36:44;19.10;;;7.30;;
70840;SDS011;58465;51.534;9.934;2023-03-04T02:39:32;17.73;;;6.68;;
70840;SDS011;58465;51.534;9.934;2023-03-04T02:42:00;23.60;;;7.60;;
70840;SDS011;58465;51.534;9.934;2023-03-04T02:44:27;24.30;;;6.68;;
70840;SDS011;58465;51.534;9.934;2023-03-04T02:46:54;25.55;;;7.95;;
70840;SDS011;58465;51.534;9.934;2023-03-04T02:49:21;18.80;;;6.45;;
70840;SDS011;58465;51.534;9.934;2023-03-04T02:51:49;24.33;;;6.90;;
70840;SDS011;58465;51.534;9.934;2023-03-04T02:54:18;20.02;;;6.78;;
70840;SDS011;58465;51.534;9.934;2023-03-04T02:56:48;20.13;;;7.32;;
70840;SDS011;58465;51.534;9.934;2023-03-04T02:59:17;18.33;;;6.22;;
70840;SDS011;58465;51.534;9.934;2023-03-04T03:01:43;24.65;;;7.45;;
70840;SDS011;58465;51.534;9.934;2023-03-04T03:04:09;26.70;;;6.93;;
70840;SDS011;58465;51.534;9.934;2023-03-04T03:06:35;24.85;;;6.43;;
70840;SDS011;58465;51.534;9.934;2023-03-04T03:09:00;23.30;;;6.97;;
70840;SDS011;58465;51.534;9.934;2023-03-04T03:11:25;21.02;;;7.03;;
70840;SDS011;58465;51.534;9.934;2023-03-04T03:13:51;20.92;;;7.03;;
70840;SDS011;58465;51.534;9.934;2023-03-04T03:16:16;24.15;;;7.63;;
70840;SDS011;58465;51.534;9.934;2023-03-04T03:18:41;24.00;;;6.60;;
70840;SDS011;58465;51.534;9.934;2023-03-04T03:21:06;19.20;;;6.70;;
70840;SDS011;58465;51.534;9.934;2023-03-04T03:23:32;22.70;;;7.15;;
70840;SDS011;58465;51.534;9.934;2023-03-04T03:25:58;23.42;;;6.10;;
70840;SDS011;58465;51.534;9.934;2023-03-04T03:28:24;17.30;;;6.63;;
70840;SDS011;58465;51.534;9.934;2023-03-04T03:30:49;17.33;;;6.00;;
70840;SDS011;58465;51.534;9.934;2023-03-04T03:33:14;20.25;;;7.07;;
70840;SDS011;58465;51.534;9.934;2023-03-04T03:35:40;16.67;;;6.10;;
70840;SDS011;58465;51.534;9.934;2023-03-04T03:38:05;20.80;;;6.22;;
70840;SDS011;58465;51.534;9.934;2023-03-04T03:40:31;16.42;;;5.63;;
70840;SDS011;58465;51.534;9.934;2023-03-04T03:42:56;19.92;;;5.43;;
70840;SDS011;58465;51.534;9.934;2023-03-04T03:45:21;18.75;;;5.43;;
70840;SDS011;58465;51.534;9.934;2023-03-04T03:47:46;15.57;;;5.60;;
70840;SDS011;58465;51.534;9.934;2023-03-04T03:50:12;21.77;;;6.35;;
70840;SDS011;58465;51.534;9.934;2023-03-04T03:52:37;23.45;;;6.85;;
70840;SDS011;58465;51.534;9.934;2023-03-04T03:55:02;15.00;;;4.95;;
70840;SDS011;58465;51.534;9.934;2023-03-04T03:57:28;21.38;;;5.28;;
70840;SDS011;58465;51.534;9.934;2023-03-04T03:59:54;20.05;;;5.45;;
70840;SDS011;58465;51.534;9.934;2023-03-04T04:02:20;18.15;;;4.55;;
70840;SDS011;58465;51.534;9.934;2023-03-04T04:04:45;17.83;;;5.10;;
70840;SDS011;58465;51.534;9.934;2023-03-04T04:07:11;17.02;;;4.95;;
70840;SDS011;58465;51.534;9.934;2023-03-04T04:09:36;23.50;;;5.47;;
70840;SDS011;58465;51.534;9.934;2023-03-04T04:12:03;20.67;;;5.32;;
70840;SDS011;58465;51.534;9.934;2023-03-04T04:14:29;21.20;;;5.53;;
70840;SDS011;58465;51.534;9.934;2023-03-04T04:16:55;20.85;;;4.85;;
70840;SDS011;58465;51.534;9.934;2023-03-04T04:19:20;23.23;;;5.95;;
70840;SDS011;58465;51.534;9.934;2023-03-04T04:21:46;19.85;;;5.18;;
70840;SDS011;58465;51.534;9.934;2023-03-04T04:24:11;18.55;;;5.82;;
70840;SDS011;58465;51.534;9.934;2023-03-04T04:26:37;13.13;;;4.88;;
70840;SDS011;58465;51.534;9.934;2023-03-04T04:29:02;20.15;;;5.10;;
70840;SDS011;58465;51.534;9.934;2023-03-04T04:31:28;19.13;;;4.53;;
70840;SDS011;58465;51.534;9.934;2023-03-04T04:33:53;23.35;;;4.65;;
70840;SDS011;58465;51.534;9.934;2023-03-04T04:36:18;19.02;;;4.50;;
70840;SDS011;58465;51.534;9.934;2023-03-04T04:38:44;15.32;;;4.38;;
70840;SDS011;58465;51.534;9.934;2023-03-04T04:41:19;14.10;;;4.18;;
70840;SDS011;58465;51.534;9.934;2023-03-04T04:43:49;26.85;;;4.93;;
70840;SDS011;58465;51.534;9.934;2023-03-04T04:46:14;17.00;;;4.40;;
70840;SDS011;58465;51.534;9.934;2023-03-04T04:48:41;18.48;;;4.13;;
70840;SDS011;58465;51.534;9.934;2023-03-04T04:51:06;17.60;;;4.38;;
70840;SDS011;58465;51.534;9.934;2023-03-04T04:53:32;20.75;;;4.75;;
70840;SDS011;58465;51.534;9.934;2023-03-04T04:55:57;17.60;;;4.88;;
70840;SDS011;58465;51.534;9.934;2023-03-04T04:58:22;12.27;;;3.72;;
70840;SDS011;58465;51.534;9.934;2023-03-04T05:00:48;13.10;;;4.15;;
70840;SDS011;58465;51.534;9.934;2023-03-04T05:03:13;14.65;;;3.65;;
70840;SDS011;58465;51.534;9.934;2023-03-04T05:05:38;14.35;;;3.65;;
70840;SDS011;58465;51.534;9.934;2023-03-04T05:08:04;14.35;;;4.63;;
70840;SDS011;58465;51.534;9.934;2023-03-04T05:10:29;12.38;;;3.25;;
70840;SDS011;58465;51.534;9.934;2023-03-04T05:12:54;15.80;;;3.88;;
70840;SDS011;58465;51.534;9.934;2023-03-04T05:15:20;16.73;;;3.50;;
70840;SDS011;58465;51.534;9.934;2023-03-04T05:17:45;13.68;;;3.13;;
70840;SDS011;58465;51.534;9.934;2023-03-04T05:20:10;16.60;;;3.55;;
70840;SDS011;58465;51.534;9.934;2023-03-04T05:22:36;19.48;;;3.95;;
70840;SDS011;58465;51.534;9.934;2023-03-04T05:25:01;15.88;;;3.60;;
70840;SDS011;58465;51.534;9.934;2023-03-04T05:27:27;16.33;;;3.20;;
70840;SDS011;58465;51.534;9.934;2023-03-04T05:29:52;20.08;;;3.65;;
70840;SDS011;58465;51.534;9.934;2023-03-04T05:32:19;14.98;;;2.70;;
70840;SDS011;58465;51.534;9.934;2023-03-04T05:34:44;12.65;;;3.05;;
70840;SDS011;58465;51.534;9.934;2023-03-04T05:37:10;14.90;;;2.90;;
70840;SDS011;58465;51.534;9.934;2023-03-04T05:39:35;12.13;;;2.92;;
70840;SDS011;58465;51.534;9.934;2023-03-04T05:42:00;11.43;;;3.33;;
70840;SDS011;58465;51.534;9.934;2023-03-04T05:44:26;16.33;;;3.15;;
70840;SDS011;58465;51.534;9.934;2023-03-04T05:46:51;8.55;;;2.67;;
70840;SDS011;58465;51.534;9.934;2023-03-04T05:49:16;16.50;;;4.38;;
70840;SDS011;58465;51.534;9.934;2023-03-04T05:51:41;12.57;;;2.97;;
70840;SDS011;58465;51.534;9.934;2023-03-04T05:54:07;26.90;;;4.60;;
70840;SDS011;58465;51.534;9.934;2023-03-04T05:56:32;19.13;;;3.53;;
70840;SDS011;58465;51.534;9.934;2023-03-04T05:58:58;13.85;;;2.75;;
70840;SDS011;58465;51.534;9.934;2023-03-04T06:01:23;14.52;;;2.55;;
70840;SDS011;58465;51.534;9.934;2023-03-04T06:03:49;18.30;;;2.58;;
70840;SDS011;58465;51.534;9.934;2023-03-04T06:06:14;13.00;;;2.83;;
70840;SDS011;58465;51.534;9.934;2023-03-04T06:08:39;12.32;;;2.50;;
70840;SDS011;58465;51.534;9.934;2023-03-04T06:11:05;13.60;;;2.50;;
70840;SDS011;58465;51.534;9.934;2023-03-04T06:13:30;13.15;;;2.22;;
70840;SDS011;58465;51.534;9.934;2023-03-04T06:15:56;8.20;;;2.72;;
70840;SDS011;58465;51.534;9.934;2023-03-04T06:18:22;10.77;;;2.42;;
70840;SDS011;58465;51.534;9.934;2023-03-04T06:20:49;13.48;;;2.35;;
70840;SDS011;58465;51.534;9.934;2023-03-04T06:23:14;13.80;;;3.17;;
70840;SDS011;58465;51.534;9.934;2023-03-04T06:25:40;10.10;;;1.90;;
70840;SDS011;58465;51.534;9.934;2023-03-04T06:28:05;12.95;;;3.08;;
70840;SDS011;58465;51.534;9.934;2023-03-04T06:30:30;9.68;;;2.22;;
70840;SDS011;58465;51.534;9.934;2023-03-04T06:32:56;8.60;;;2.33;;
70840;SDS011;58465;51.534;9.934;2023-03-04T06:35:21;14.25;;;2.83;;
70840;SDS011;58465;51.534;9.934;2023-03-04T06:37:46;11.52;;;2.40;;
70840;SDS011;58465;51.534;9.934;2023-03-04T06:40:11;8.70;;;2.72;;
70840;SDS011;58465;51.534;9.934;2023-03-04T06:42:38;13.60;;;2.78;;
70840;SDS011;58465;51.534;9.934;2023-03-04T06:45:04;14.85;;;2.75;;
70840;SDS011;58465;51.534;9.934;2023-03-04T06:47:30;13.38;;;2.22;;
70840;SDS011;58465;51.534;9.934;2023-03-04T06:49:55;16.90;;;2.88;;
70840;SDS011;58465;51.534;9.934;2023-03-04T06:52:21;11.93;;;2.20;;
70840;SDS011;58465;51.534;9.934;2023-03-04T06:54:46;10.70;;;2.20;;
70840;SDS011;58465;51.534;9.934;2023-03-04T06:57:11;12.85;;;2.30;;
70840;SDS011;58465;51.534;9.934;2023-03-04T06:59:37;20.83;;;2.35;;
70840;SDS011;58465;51.534;9.934;2023-03-04T07:02:03;11.85;;;2.40;;
70840;SDS011;58465;51.534;9.934;2023-03-04T07:04:28;9.90;;;2.03;;
70840;SDS011;58465;51.534;9.934;2023-03-04T07:06:53;14.15;;;2.35;;
70840;SDS011;58465;51.534;9.934;2023-03-04T07:09:18;15.35;;;2.70;;
70840;SDS011;58465;51.534;9.934;2023-03-04T07:11:44;17.70;;;2.85;;
70840;SDS011;58465;51.534;9.934;2023-03-04T07:14:09;11.60;;;2.45;;
70840;SDS011;58465;51.534;9.934;2023-03-04T07:16:35;13.85;;;2.78;;
70840;SDS011;58465;51.534;9.934;2023-03-04T07:19:00;18.38;;;2.38;;
70840;SDS011;58465;51.534;9.934;2023-03-04T07:21:25;9.77;;;1.92;;
70840;SDS011;58465;51.534;9.934;2023-03-04T07:23:51;9.18;;;2.65;;
70840;SDS011;58465;51.534;9.934;2023-03-04T07:26:16;7.03;;;2.20;;
70840;SDS011;58465;51.534;9.934;2023-03-04T07:28:41;10.93;;;2.30;;
70840;SDS011;58465;51.534;9.934;2023-03-04T07:34:03;14.63;;;2.60;;
70840;SDS011;58465;51.534;9.934;2023-03-04T07:36:33;9.98;;;3.17;;
70840;SDS011;58465;51.534;9.934;2023-03-04T07:39:00;17.98;;;3.10;;
70840;SDS011;58465;51.534;9.934;2023-03-04T07:41:26;5.57;;;2.13;;
70840;SDS011;58465;51.534;9.934;2023-03-04T07:43:54;18.30;;;2.80;;
70840;SDS011;58465;51.534;9.934;2023-03-04T07:46:20;6.68;;;2.10;;
70840;SDS011;58465;51.534;9.934;2023-03-04T07:48:45;13.93;;;3.42;;
70840;SDS011;58465;51.534;9.934;2023-03-04T07:51:12;8.45;;;1.90;;
70840;SDS011;58465;51.534;9.934;2023-03-04T07:53:42;8.07;;;2.23;;
70840;SDS011;58465;51.534;9.934;2023-03-04T07:56:10;10.32;;;2.60;;
70840;SDS011;58465;51.534;9.934;2023-03-04T07:58:40;4.93;;;2.20;;
70840;SDS011;58465;51.534;9.934;2023-03-04T08:01:09;10.35;;;1.40;;
70840;SDS011;58465;51.534;9.934;2023-03-04T08:03:36;6.57;;;2.05;;
70840;SDS011;58465;51.534;9.934;2023-03-04T08:06:03;6.57;;;1.98;;
70840;SDS011;58465;51.534;9.934;2023-03-04T08:08:29;14.40;;;2.80;;
70840;SDS011;58465;51.534;9.934;2023-03-04T08:10:54;6.43;;;1.70;;
70840;SDS011;58465;51.534;9.934;2023-03-04T08:13:20;11.32;;;2.10;;
70840;SDS011;58465;51.534;9.934;2023-03-04T08:15:45;9.00;;;2.13;;
70840;SDS011;58465;51.534;9.934;2023-03-04T08:18:11;6.95;;;2.17;;
70840;SDS011;58465;51.534;9.934;2023-03-04T08:20:36;7.25;;;2.00;;
70840;SDS011;58465;51.534;9.934;2023-03-04T08:23:05;11.15;;;2.08;;
70840;SDS011;58465;51.534;9.934;2023-03-04T08:25:30;7.13;;;2.08;;
70840;SDS011;58465;51.534;9.934;2023-03-04T08:27:55;10.95;;;2.40;;
70840;SDS011;58465;51.534;9.934;2023-03-04T08:30:20;9.25;;;2.17;;
70840;SDS011;58465;51.534;9.934;2023-03-04T08:32:46;12.10;;;3.67;;
70840;SDS011;58465;51.534;9.934;2023-03-04T08:35:11;4.85;;;1.73;;
70840;SDS011;58465;51.534;9.934;2023-03-04T08:37:36;11.55;;;2.83;;
70840;SDS011;58465;51.534;9.934;2023-03-04T08:40:02;11.10;;;2.15;;
70840;SDS011;58465;51.534;9.934;2023-03-04T08:42:27;6.57;;;1.90;;
70840;SDS011;58465;51.534;9.934;2023-03-04T08:44:53;13.20;;;2.40;;
70840;SDS011;58465;51.534;9.934;2023-03-04T08:47:18;7.95;;;2.83;;
70840;SDS011;58465;51.534;9.934;2023-03-04T08:49:43;14.07;;;2.35;;
70840;SDS011;58465;51.534;9.934;2023-03-04T08:52:08;13.75;;;2.28;;
70840;SDS011;58465;51.534;9.934;2023-03-04T08:54:34;11.30;;;2.03;;
70840;SDS011;58465;51.534;9.934;2023-03-04T08:56:59;7.90;;;1.95;;
70840;SDS011;58465;51.534;9.934;2023-03-04T08:59:24;4.63;;;1.98;;
70840;SDS011;58465;51.534;9.934;2023-03-04T09:01:49;6.30;;;1.67;;
70840;SDS011;58465;51.534;9.934;2023-03-04T09:04:15;10.32;;;2.78;;
70840;SDS011;58465;51.534;9.934;2023-03-04T09:06:40;9.65;;;2.22;;
70840;SDS011;58465;51.534;9.934;2023-03-04T09:09:05;8.68;;;2.38;;
70840;SDS011;58465;51.534;9.934;2023-03-04T09:11:30;7.00;;;2.08;;
70840;SDS011;58465;51.534;9.934;2023-03-04T09:13:56;5.53;;;1.98;;
70840;SDS011;58465;51.534;9.934;2023-03-04T09:16:21;6.53;;;1.85;;
70840;SDS011;58465;51.534;9.934;2023-03-04T09:18:47;6.97;;;1.95;;
70840;SDS011;58465;51.534;9.934;2023-03-04T09:21:12;8.02;;;2.17;;
70840;SDS011;58465;51.534;9.934;2023-03-04T09:23:38;8.80;;;1.95;;
70840;SDS011;58465;51.534;9.934;2023-03-04T09:26:22;10.10;;;1.60;;
70840;SDS011;58465;51.534;9.934;2023-03-04T09:28:57;7.93;;;2.20;;
70840;SDS011;58465;51.534;9.934;2023-03-04T09:31:24;7.03;;;2.22;;
70840;SDS011;58465;51.534;9.934;2023-03-04T09:33:51;9.02;;;1.70;;
70840;SDS011;58465;51.534;9.934;2023-03-04T09:36:17;3.63;;;1.67;;
70840;SDS011;58465;51.534;9.934;2023-03-04T09:38:43;4.07;;;1.80;;
70840;SDS011;58465;51.534;9.934;2023-03-04T09:41:09;7.55;;;1.90;;
70840;SDS011;58465;51.534;9.934;2023-03-04T09:43:40;5.32;;;1.30;;
70840;SDS011;58465;51.534;9.934;2023-03-04T09:46:08;5.32;;;1.45;;
70840;SDS011;58465;51.534;9.934;2023-03-04T09:48:46;6.03;;;3.47;;
70840;SDS011;58465;51.534;9.934;2023-03-04T09:53:45;32.53;;;9.97;;
70840;SDS011;58465;51.534;9.934;2023-03-04T09:56:12;5.68;;;1.70;;
70840;SDS011;58465;51.534;9.934;2023-03-04T09:58:43;9.07;;;1.50;;
70840;SDS011;58465;51.534;9.934;2023-03-04T10:01:21;2.83;;;1.23;;
70840;SDS011;58465;51.534;9.934;2023-03-04T10:03:53;4.82;;;1.48;;
70840;SDS011;58465;51.534;9.934;2023-03-04T10:06:23;4.85;;;1.90;;
70840;SDS011;58465;51.534;9.934;2023-03-04T10:14:09;9.10;;;1.35;;
70840;SDS011;58465;51.534;9.934;2023-03-04T10:16:43;8.93;;;2.35;;
70840;SDS011;58465;51.534;9.934;2023-03-04T10:21:40;2.83;;;1.40;;
70840;SDS011;58465;51.534;9.934;2023-03-04T10:24:10;4.82;;;1.55;;
70840;SDS011;58465;51.534;9.934;2023-03-04T10:26:37;5.53;;;1.85;;
70840;SDS011;58465;51.534;9.934;2023-03-04T10:29:03;8.15;;;1.95;;
70840;SDS011;58465;51.534;9.934;2023-03-04T10:31:35;5.88;;;2.53;;
70840;SDS011;58465;51.534;9.934;2023-03-04T10:34:02;4.53;;;1.60;;
70840;SDS011;58465;51.534;9.934;2023-03-04T10:39:00;4.87;;;1.30;;
70840;SDS011;58465;51.534;9.934;2023-03-04T10:41:32;5.43;;;1.77;;
70840;SDS011;58465;51.534;9.934;2023-03-04T10:46:41;4.22;;;1.65;;
70840;SDS011;58465;51.534;9.934;2023-03-04T10:49:11;4.32;;;1.58;;
70840;SDS011;58465;51.534;9.934;2023-03-04T10:51:48;6.30;;;2.10;;
70840;SDS011;58465;51.534;9.934;2023-03-04T10:54:23;6.00;;;2.22;;
70840;SDS011;58465;51.534;9.934;2023-03-04T10:56:54;3.40;;;1.60;;
70840;SDS011;58465;51.534;9.934;2023-03-04T11:01:51;7.00;;;3.15;;
70840;SDS011;58465;51.534;9.934;2023-03-04T11:04:19;2.92;;;1.60;;
70840;SDS011;58465;51.534;9.934;2023-03-04T11:06:49;9.20;;;4.82;;
70840;SDS011;58465;51.534;9.934;2023-03-04T11:09:25;7.65;;;2.13;;
70840;SDS011;58465;51.534;9.934;2023-03-04T11:14:26;7.95;;;2.67;;
70840;SDS011;58465;51.534;9.934;2023-03-04T11:16:59;5.60;;;2.03;;
70840;SDS011;58465;51.534;9.934;2023-03-04T11:19:29;5.40;;;2.00;;
70840;SDS011;58465;51.534;9.934;2023-03-04T11:21:59;5.05;;;2.53;;
70840;SDS011;58465;51.534;9.934;2023-03-04T11:24:27;12.07;;;5.05;;
70840;SDS011;58465;51.534;9.934;2023-03-04T11:27:02;9.13;;;3.05;;
70840;SDS011;58465;51.534;9.934;2023-03-04T11:32:26;5.38;;;1.90;;
70840;SDS011;58465;51.534;9.934;2023-03-04T11:35:17;8.38;;;2.63;;
70840;SDS011;58465;51.534;9.934;2023-03-04T11:38:33;4.60;;;2.10;;
70840;SDS011;58465;51.534;9.934;2023-03-04T11:43:29;3.20;;;1.58;;
70840;SDS011;58465;51.534;9.934;2023-03-04T11:48:47;4.25;;;1.70;;
70840;SDS011;58465;51.534;9.934;2023-03-04T11:51:33;3.40;;;1.45;;
70840;SDS011;58465;51.534;9.934;2023-03-04T11:56:50;4.07;;;1.70;;
70840;SDS011;58465;51.534;9.934;2023-03-04T12:07:13;4.95;;;1.92;;
70840;SDS011;58465;51.534;9.934;2023-03-04T12:17:36;5.85;;;1.40;;
70840;SDS011;58465;51.534;9.934;2023-03-04T12:31:04;2.25;;;1.30;;
70840;SDS011;58465;51.534;9.934;2023-03-04T12:37:02;2.53;;;1.38;;
70840;SDS011;58465;51.534;9.934;2023-03-04T12:39:31;4.85;;;1.60;;
70840;SDS011;58465;51.534;9.934;2023-03-04T12:42:24;4.68;;;1.30;;
70840;SDS011;58465;51.534;9.934;2023-03-04T12:48:04;4.15;;;1.65;;
70840;SDS011;58465;51.534;9.934;2023-03-04T12:51:14;9.90;;;3.33;;
70840;SDS011;58465;51.534;9.934;2023-03-04T12:58:47;5.97;;;1.90;;
70840;SDS011;58465;51.534;9.934;2023-03-04T13:01:17;2.60;;;1.70;;
70840;SDS011;58465;51.534;9.934;2023-03-04T13:03:59;3.47;;;1.70;;
70840;SDS011;58465;51.534;9.934;2023-03-04T13:09:13;2.10;;;1.58;;
70840;SDS011;58465;51.534;9.934;2023-03-04T13:11:45;2.63;;;1.88;;
70840;SDS011;58465;51.534;9.934;2023-03-04T13:16:47;16.42;;;8.98;;
70840;SDS011;58465;51.534;9.934;2023-03-04T13:35:54;3.67;;;2.08;;
70840;SDS011;58465;51.534;9.934;2023-03-04T13:43:27;5.65;;;2.38;;
70840;SDS011;58465;51.534;9.934;2023-03-04T13:51:30;4.18;;;1.80;;
70840;SDS011;58465;51.534;9.934;2023-03-04T13:56:24;3.00;;;1.70;;
70840;SDS011;58465;51.534;9.934;2023-03-04T14:06:50;7.85;;;2.10;;
70840;SDS011;58465;51.534;9.934;2023-03-04T14:09:18;4.75;;;1.25;;
70840;SDS011;58465;51.534;9.934;2023-03-04T14:11:46;4.20;;;1.35;;
70840;SDS011;58465;51.534;9.934;2023-03-04T14:14:13;8.38;;;2.22;;
70840;SDS011;58465;51.534;9.934;2023-03-04T14:16:51;5.68;;;1.50;;
70840;SDS011;58465;51.534;9.934;2023-03-04T14:19:21;3.15;;;1.70;;
70840;SDS011;58465;51.534;9.934;2023-03-04T14:21:50;3.20;;;1.88;;
70840;SDS011;58465;51.534;9.934;2023-03-04T14:24:17;7.30;;;1.40;;
70840;SDS011;58465;51.534;9.934;2023-03-04T14:26:43;3.28;;;1.42;;
70840;SDS011;58465;51.534;9.934;2023-03-04T14:29:27;4.18;;;1.42;;
70840;SDS011;58465;51.534;9.934;2023-03-04T14:31:54;4.10;;;1.30;;
70840;SDS011;58465;51.534;9.934;2023-03-04T14:34:29;6.18;;;1.60;;
70840;SDS011;58465;51.534;9.934;2023-03-04T14:36:57;5.57;;;1.60;;
70840;SDS011;58465;51.534;9.934;2023-03-04T14:39:28;4.97;;;1.30;;
70840;SDS011;58465;51.534;9.934;2023-03-04T14:41:55;7.70;;;2.67;;
70840;SDS011;58465;51.534;9.934;2023-03-04T14:44:32;5.85;;;3.55;;
70840;SDS011;58465;51.534;9.934;2023-03-04T14:47:16;5.55;;;1.90;;
70840;SDS011;58465;51.534;9.934;2023-03-04T14:49:48;3.65;;;1.08;;
70840;SDS011;58465;51.534;9.934;2023-03-04T14:52:27;2.63;;;1.20;;
70840;SDS011;58465;51.534;9.934;2023-03-04T14:55:16;5.50;;;1.65;;
70840;SDS011;58465;51.534;9.934;2023-03-04T14:57:47;6.60;;;1.80;;
70840;SDS011;58465;51.534;9.934;2023-03-04T15:02:43;4.40;;;1.60;;
70840;SDS011;58465;51.534;9.934;2023-03-04T15:05:19;29.25;;;12.88;;
70840;SDS011;58465;51.534;9.934;2023-03-04T15:07:53;4.43;;;1.85;;
70840;SDS011;58465;51.534;9.934;2023-03-04T15:12:52;3.55;;;1.70;;
70840;SDS011;58465;51.534;9.934;2023-03-04T15:18:02;4.13;;;1.55;;
70840;SDS011;58465;51.534;9.934;2023-03-04T15:20:38;3.92;;;1.60;;
70840;SDS011;58465;51.534;9.934;2023-03-04T15:23:03;5.20;;;1.70;;
70840;SDS011;58465;51.534;9.934;2023-03-04T15:25:31;4.25;;;1.33;;
70840;SDS011;58465;51.534;9.934;2023-03-04T15:27:57;2.97;;;1.25;;
70840;SDS011;58465;51.534;9.934;2023-03-04T15:30:24;2.20;;;1.10;;
70840;SDS011;58465;51.534;9.934;2023-03-04T15:32:52;6.75;;;1.27;;
70840;SDS011;58465;51.534;9.934;2023-03-04T15:35:18;2.40;;;1.13;;
70840;SDS011;58465;51.534;9.934;2023-03-04T15:37:44;2.70;;;1.25;;
70840;SDS011;58465;51.534;9.934;2023-03-04T15:40:20;3.88;;;1.50;;
70840;SDS011;58465;51.534;9.934;2023-03-04T15:42:49;3.92;;;1.10;;
70840;SDS011;58465;51.534;9.934;2023-03-04T15:48:00;2.70;;;0.80;;
70840;SDS011;58465;51.534;9.934;2023-03-04T15:50:28;6.03;;;1.40;;
70840;SDS011;58465;51.534;9.934;2023-03-04T15:52:55;2.95;;;1.15;;
70840;SDS011;58465;51.534;9.934;2023-03-04T15:55:24;2.67;;;1.02;;
70840;SDS011;58465;51.534;9.934;2023-03-04T15:57:51;2.45;;;1.30;;
70840;SDS011;58465;51.534;9.934;2023-03-04T16:00:18;8.07;;;1.40;;
70840;SDS011;58465;51.534;9.934;2023-03-04T16:02:44;4.05;;;1.50;;
70840;SDS011;58465;51.534;9.934;2023-03-04T16:05:10;5.72;;;2.00;;
70840;SDS011;58465;51.534;9.934;2023-03-04T16:07:35;6.97;;;1.60;;
70840;SDS011;58465;51.534;9.934;2023-03-04T16:10:20;5.97;;;1.80;;
70840;SDS011;58465;51.534;9.934;2023-03-04T16:12:51;8.13;;;1.63;;
70840;SDS011;58465;51.534;9.934;2023-03-04T16:15:19;7.60;;;1.77;;
70840;SDS011;58465;51.534;9.934;2023-03-04T16:17:46;9.60;;;2.00;;
70840;SDS011;58465;51.534;9.934;2023-03-04T16:20:13;5.53;;;1.60;;
70840;SDS011;58465;51.534;9.934;2023-03-04T16:22:40;9.20;;;2.13;;
70840;SDS011;58465;51.534;9.934;2023-03-04T16:25:08;9.10;;;1.88;;
70840;SDS011;58465;51.534;9.934;2023-03-04T16:27:35;8.13;;;2.72;;
70840;SDS011;58465;51.534;9.934;2023-03-04T16:30:00;9.85;;;1.63;;
70840;SDS011;58465;51.534;9.934;2023-03-04T16:32:25;10.55;;;1.88;;
70840;SDS011;58465;51.534;9.934;2023-03-04T16:34:51;7.55;;;2.13;;
70840;SDS011;58465;51.534;9.934;2023-03-04T16:37:17;8.32;;;2.10;;
70840;SDS011;58465;51.534;9.934;2023-03-04T16:39:44;9.43;;;2.20;;
70840;SDS011;58465;51.534;9.934;2023-03-04T16:42:16;9.05;;;2.13;;
70840;SDS011;58465;51.534;9.934;2023-03-04T16:44:43;11.82;;;2.78;;
70840;SDS011;58465;51.534;9.934;2023-03-04T16:47:10;8.27;;;1.50;;